Silver Wings — WDH7871 — position and weather

sailwx.info

Track history (hours):
 
Tides and Currents Weather Stations Pressure Air Temp Water Temp Dewpoint Dewpoint Depression Visibility Wind Speed Wind Dir Waves Ship Positions

Silver Wings

Owner: Lappala, Risto, Bothell, WA. More information available from US FCC via Universal Licensing System and Coast Guard Vessel Documentation Center.

Last reported at 2017-Oct-14 14:46 UTC. Time now 2017-Oct-18 23:53 UTC.
Position N 32°42' W 117°14'.

Length 10 m.

Type: Sailing vessel. MMSI: 338246000.

Date/timePositionNaut miles runAvg speedWind from/ knotsBaromVisibWave heightAir tempDewpointWater temp
2017-Oct-14 14:46N 32°42' W 117°14'1 4.6
2017-Oct-14 14:28N 32°41' W 117°14'2 4.4
2017-Oct-14 14:00N 32°39' W 117°14'2 3.2
2017-Oct-14 13:14N 32°38' W 117°17'1 3.6
2017-Oct-14 12:57N 32°39' W 117°18'1 2.2
2017-Oct-14 12:24N 32°39' W 117°19'2 4.8
2017-Oct-14 12:00N 32°40' W 117°21'2 4.9
2017-Oct-14 11:30N 32°40' W 117°24'2 4.8
2017-Oct-14 11:00N 32°41' W 117°27'2 4.6
2017-Oct-14 10:30N 32°42' W 117°29'2 4.6
2017-Oct-14 10:01N 32°43' W 117°32'2 4.7
2017-Oct-14 09:30N 32°44' W 117°34'2 4.8
2017-Oct-14 09:00N 32°45' W 117°37'2 4.7
2017-Oct-14 08:31N 32°46' W 117°40'2 4.7
2017-Oct-14 08:00N 32°46' W 117°42'2 4.6
2017-Oct-14 07:30N 32°47' W 117°45'2 4.5
2017-Oct-14 07:00N 32°48' W 117°48'2 4.4
2017-Oct-14 06:30N 32°48' W 117°50'2 3.3
2017-Oct-14 06:00N 32°48' W 117°52'2 4.2
2017-Oct-14 05:30N 32°49' W 117°54'2 4.1
2017-Oct-14 04:59N 32°50' W 117°57'2 4.3
2017-Oct-14 04:30N 32°51' W 117°59'2 4.6
2017-Oct-14 03:58N 32°53' W 118°01'2 4.7
2017-Oct-14 03:30N 32°54' W 118°02'2 4.9
2017-Oct-14 02:59N 32°57' W 118°04'56 1.8
2017-Oct-12 19:04N 33°39' W 118°47'1 5.8
2017-Oct-12 18:53N 33°40' W 118°48'3 5.6
2017-Oct-12 18:25N 33°41' W 118°51'4 5.7
2017-Oct-12 17:44N 33°43' W 118°55'1 5.9
2017-Oct-12 17:30N 33°44' W 118°57'3 5.6
2017-Oct-12 17:00N 33°45' W 118°60'3 5.5
2017-Oct-12 16:30N 33°47' W 119°02'3 5.4
2017-Oct-12 16:00N 33°48' W 119°05'3 5.1
2017-Oct-12 15:30N 33°49' W 119°08'2 4.8
2017-Oct-12 14:59N 33°51' W 119°10'2 4.8
2017-Oct-12 14:30N 33°52' W 119°12'2 4.7
2017-Oct-12 14:00N 33°53' W 119°15'2 4.6
2017-Oct-12 13:30N 33°54' W 119°17'2 4.5
2017-Oct-12 13:00N 33°55' W 119°20'2 4.6
2017-Oct-12 12:29N 33°57' W 119°22'3 4.4
2017-Oct-12 11:54N 33°58' W 119°25'2 4.4
2017-Oct-12 11:30N 33°59' W 119°26'2 4.3
2017-Oct-12 10:59N 33°60' W 119°29'2 3.8
2017-Oct-12 10:30N 34°01' W 119°31'1 0.1
2017-Oct-11 19:13N 34°02' W 119°31'1 4.0
2017-Oct-11 18:59N 34°02' W 119°31'3 5.5
2017-Oct-11 18:30N 34°03' W 119°34'0 0.8
2017-Oct-11 18:00N 34°03' W 119°35'3 5.2
2017-Oct-11 17:29N 34°03' W 119°38'3 5.3
2017-Oct-11 17:00N 34°03' W 119°41'3 0.2
2017-Oct-10 23:20N 34°04' W 119°45'2 5.2
2017-Oct-10 22:54N 34°05' W 119°43'3 5.6
2017-Oct-10 22:25N 34°08' W 119°42'3 5.2
2017-Oct-10 21:51N 34°11' W 119°41'2 4.8
2017-Oct-10 21:29N 34°12' W 119°41'2 5.0
2017-Oct-10 21:00N 34°15' W 119°41'3 4.9
2017-Oct-10 20:18N 34°18' W 119°41'2 4.7
2017-Oct-10 19:57N 34°20' W 119°41'2 4.6
2017-Oct-10 19:30N 34°22' W 119°41'2 0.9
2017-Oct-10 17:02N 34°24' W 119°42'0 0.0
2017-Oct-10 16:44N 34°24' W 119°42'0 0.0
2017-Oct-10 16:17N 34°24' W 119°42'0 0.0
2017-Oct-10 05:14N 34°24' W 119°42'0 0.0
2017-Oct-10 00:02N 34°24' W 119°42'0 0.0
2017-Oct-08 13:14N 34°24' W 119°42'0 0.0
2017-Oct-08 09:08N 34°24' W 119°42'0 0.0
2017-Oct-08 08:56N 34°24' W 119°42'0 0.0
2017-Oct-08 08:29N 34°24' W 119°42'0 0.0
2017-Oct-08 07:59N 34°24' W 119°42'0 0.0
2017-Oct-08 07:26N 34°24' W 119°42'0 0.0
2017-Oct-08 06:59N 34°24' W 119°42'1 0.0
2017-Oct-07 10:56N 34°25' W 119°41'0 0.0
2017-Oct-07 04:41N 34°25' W 119°41'0 0.0
2017-Oct-07 01:29N 34°25' W 119°41'3 4.7
2017-Oct-07 00:55N 34°23' W 119°44'3 5.1
2017-Oct-07 00:24N 34°24' W 119°47'2 5.1
2017-Oct-07 00:00N 34°24' W 119°49'3 5.0
2017-Oct-06 23:28N 34°24' W 119°52'2 4.9
2017-Oct-06 23:00N 34°24' W 119°55'3 4.7
2017-Oct-06 22:20N 34°25' W 119°59'2 4.8
2017-Oct-06 21:50N 34°25' W 120°02'2 4.6
2017-Oct-06 21:24N 34°25' W 120°04'2 4.8
2017-Oct-06 20:57N 34°25' W 120°07'2 4.7
2017-Oct-06 20:30N 34°26' W 120°09'2 4.6
2017-Oct-06 19:58N 34°26' W 120°12'2 4.5
2017-Oct-06 19:29N 34°25' W 120°15'2 4.3
2017-Oct-06 18:56N 34°25' W 120°18'2 4.0
2017-Oct-06 18:30N 34°25' W 120°20'2 3.8
2017-Oct-06 17:59N 34°26' W 120°22'2 3.5
2017-Oct-06 17:30N 34°26' W 120°24'2 3.3
2017-Oct-06 17:00N 34°27' W 120°26'1 1.1
2017-Oct-06 16:29N 34°27' W 120°26'0 0.0
2017-Oct-06 15:56N 34°27' W 120°26'0 0.0
2017-Oct-06 15:29N 34°27' W 120°26'0 0.0
2017-Oct-06 14:17N 34°27' W 120°26'0 0.0
2017-Oct-06 13:59N 34°27' W 120°26'0 0.0
2017-Oct-06 13:26N 34°27' W 120°26'0 0.0
2017-Oct-06 12:59N 34°27' W 120°26'0 0.0
2017-Oct-06 12:30N 34°27' W 120°26'0 0.0
2017-Oct-06 11:59N 34°27' W 120°26'0 0.0
2017-Oct-06 11:26N 34°27' W 120°26'0 0.0
2017-Oct-06 10:50N 34°27' W 120°26'0 0.0
2017-Oct-06 10:29N 34°27' W 120°26'0 0.0
2017-Oct-06 09:59N 34°27' W 120°26'0 0.0
2017-Oct-06 09:29N 34°27' W 120°26'0 0.0
2017-Oct-06 08:59N 34°27' W 120°26'0 0.0
2017-Oct-06 08:26N 34°27' W 120°26'0 0.0
2017-Oct-06 07:56N 34°27' W 120°26'0 0.0
2017-Oct-06 07:17N 34°27' W 120°26'0 0.0
2017-Oct-06 06:41N 34°27' W 120°26'0 0.1
2017-Oct-06 06:17N 34°27' W 120°26'0 0.0
2017-Oct-06 05:59N 34°27' W 120°26'0 0.0
2017-Oct-06 05:20N 34°27' W 120°26'0 0.1
2017-Oct-06 04:59N 34°27' W 120°26'0 0.0
2017-Oct-06 04:29N 34°27' W 120°26'0 0.0
2017-Oct-06 03:59N 34°27' W 120°26'0 0.0
2017-Oct-06 02:50N 34°27' W 120°26'0 0.0
2017-Oct-06 02:29N 34°27' W 120°26'0 0.0
2017-Oct-06 01:56N 34°27' W 120°26'0 0.0
2017-Oct-06 01:26N 34°27' W 120°26'0 0.0
2017-Oct-06 00:53N 34°27' W 120°26'0 0.0
2017-Oct-06 00:26N 34°27' W 120°26'0 0.0
2017-Oct-05 23:53N 34°27' W 120°26'0 0.0
2017-Oct-05 23:26N 34°27' W 120°26'0 0.0
2017-Oct-05 22:41N 34°27' W 120°26'0 0.0
2017-Oct-05 22:26N 34°27' W 120°26'0 0.0
2017-Oct-05 21:59N 34°27' W 120°26'0 0.0
2017-Oct-05 21:29N 34°27' W 120°26'0 0.0
2017-Oct-05 20:59N 34°27' W 120°26'0 0.0
2017-Oct-05 20:29N 34°27' W 120°26'0 0.0
2017-Oct-05 19:56N 34°27' W 120°26'0 0.0
2017-Oct-05 19:29N 34°27' W 120°26'0 0.0
2017-Oct-05 18:53N 34°27' W 120°26'0 0.0
2017-Oct-05 18:29N 34°27' W 120°26'0 0.0
2017-Oct-05 17:53N 34°27' W 120°26'0 0.0
2017-Oct-05 17:23N 34°27' W 120°26'0 0.0
2017-Oct-05 16:32N 34°27' W 120°26'0 0.0
2017-Oct-05 15:29N 34°27' W 120°26'0 0.1
2017-Oct-05 14:59N 34°27' W 120°26'0 0.0
2017-Oct-05 14:20N 34°27' W 120°26'0 0.0
2017-Oct-05 13:59N 34°27' W 120°26'0 0.0
2017-Oct-05 12:47N 34°27' W 120°26'0 0.0
2017-Oct-05 11:35N 34°27' W 120°26'0 0.0
2017-Oct-05 11:29N 34°27' W 120°26'0 0.0
2017-Oct-05 10:47N 34°27' W 120°26'0 0.0
2017-Oct-05 10:20N 34°27' W 120°26'0 0.0
2017-Oct-05 08:14N 34°27' W 120°26'0 0.0
2017-Oct-05 07:56N 34°27' W 120°26'0 0.0
2017-Oct-05 07:26N 34°27' W 120°26'0 0.0
2017-Oct-05 06:56N 34°27' W 120°26'0 0.0
2017-Oct-05 06:17N 34°27' W 120°26'0 0.0
2017-Oct-05 05:56N 34°27' W 120°26'0 0.0
2017-Oct-05 05:26N 34°27' W 120°26'0 0.0
2017-Oct-05 04:59N 34°27' W 120°26'0 0.3
2017-Oct-05 04:30N 34°27' W 120°27'1 2.9
2017-Oct-05 04:00N 34°26' W 120°28'3 6.1
2017-Oct-05 03:30N 34°28' W 120°31'3 6.0
2017-Oct-05 03:00N 34°30' W 120°34'3 6.1
2017-Oct-05 02:30N 34°32' W 120°37'8 4.8
2017-Oct-05 00:47N 34°39' W 120°41'2 6.1
2017-Oct-05 00:29N 34°41' W 120°42'3 6.3
2017-Oct-05 00:00N 34°44' W 120°42'3 6.4
2017-Oct-04 23:29N 34°47' W 120°43'3 6.6
2017-Oct-04 23:00N 34°50' W 120°44'3 6.4
2017-Oct-04 22:30N 34°53' W 120°44'3 6.3
2017-Oct-04 22:00N 34°57' W 120°46'8 6.0
2017-Oct-04 20:45N 35°04' W 120°49'1 5.9
2017-Oct-04 20:30N 35°05' W 120°50'3 5.7
2017-Oct-04 20:00N 35°07' W 120°51'8 4.2
2017-Oct-04 18:09N 35°14' W 120°56'2 3.2
2017-Oct-04 17:38N 35°16' W 120°57'0 3.0
2017-Oct-04 17:30N 35°16' W 120°57'  
Track history (hours):
 
Tides and Currents Weather Stations Pressure Air Temp Water Temp Dewpoint Dewpoint Depression Visibility Wind Speed Wind Dir Waves Ship Positions

Silver Wings

Owner: Lappala, Risto, Bothell, WA. More information available from US FCC via Universal Licensing System and Coast Guard Vessel Documentation Center.

Last reported at 2017-Oct-14 14:46 UTC. Time now 2017-Oct-18 23:53 UTC.
Position N 32°42' W 117°14'.

Length 10 m.

Type: Sailing vessel. MMSI: 338246000.

Date/timePositionNaut miles runAvg speedWind from/ knotsBaromVisibWave heightAir tempDewpointWater temp
2017-Oct-14 14:46N 32°42' W 117°14'1 4.6
2017-Oct-14 14:28N 32°41' W 117°14'2 4.4
2017-Oct-14 14:00N 32°39' W 117°14'2 3.2
2017-Oct-14 13:14N 32°38' W 117°17'1 3.6
2017-Oct-14 12:57N 32°39' W 117°18'1 2.2
2017-Oct-14 12:24N 32°39' W 117°19'2 4.8
2017-Oct-14 12:00N 32°40' W 117°21'2 4.9
2017-Oct-14 11:30N 32°40' W 117°24'2 4.8
2017-Oct-14 11:00N 32°41' W 117°27'2 4.6
2017-Oct-14 10:30N 32°42' W 117°29'2 4.6
2017-Oct-14 10:01N 32°43' W 117°32'2 4.7
2017-Oct-14 09:30N 32°44' W 117°34'2 4.8
2017-Oct-14 09:00N 32°45' W 117°37'2 4.7
2017-Oct-14 08:31N 32°46' W 117°40'2 4.7
2017-Oct-14 08:00N 32°46' W 117°42'2 4.6
2017-Oct-14 07:30N 32°47' W 117°45'2 4.5
2017-Oct-14 07:00N 32°48' W 117°48'2 4.4
2017-Oct-14 06:30N 32°48' W 117°50'2 3.3
2017-Oct-14 06:00N 32°48' W 117°52'2 4.2
2017-Oct-14 05:30N 32°49' W 117°54'2 4.1
2017-Oct-14 04:59N 32°50' W 117°57'2 4.3
2017-Oct-14 04:30N 32°51' W 117°59'2 4.6
2017-Oct-14 03:58N 32°53' W 118°01'2 4.7
2017-Oct-14 03:30N 32°54' W 118°02'2 4.9
2017-Oct-14 02:59N 32°57' W 118°04'56 1.8
2017-Oct-12 19:04N 33°39' W 118°47'1 5.8
2017-Oct-12 18:53N 33°40' W 118°48'3 5.6
2017-Oct-12 18:25N 33°41' W 118°51'4 5.7
2017-Oct-12 17:44N 33°43' W 118°55'1 5.9
2017-Oct-12 17:30N 33°44' W 118°57'3 5.6
2017-Oct-12 17:00N 33°45' W 118°60'3 5.5
2017-Oct-12 16:30N 33°47' W 119°02'3 5.4
2017-Oct-12 16:00N 33°48' W 119°05'3 5.1
2017-Oct-12 15:30N 33°49' W 119°08'2 4.8
2017-Oct-12 14:59N 33°51' W 119°10'2 4.8
2017-Oct-12 14:30N 33°52' W 119°12'2 4.7
2017-Oct-12 14:00N 33°53' W 119°15'2 4.6
2017-Oct-12 13:30N 33°54' W 119°17'2 4.5
2017-Oct-12 13:00N 33°55' W 119°20'2 4.6
2017-Oct-12 12:29N 33°57' W 119°22'3 4.4
2017-Oct-12 11:54N 33°58' W 119°25'2 4.4
2017-Oct-12 11:30N 33°59' W 119°26'2 4.3
2017-Oct-12 10:59N 33°60' W 119°29'2 3.8
2017-Oct-12 10:30N 34°01' W 119°31'1 0.1
2017-Oct-11 19:13N 34°02' W 119°31'1 4.0
2017-Oct-11 18:59N 34°02' W 119°31'3 5.5
2017-Oct-11 18:30N 34°03' W 119°34'0 0.8
2017-Oct-11 18:00N 34°03' W 119°35'3 5.2
2017-Oct-11 17:29N 34°03' W 119°38'3 5.3
2017-Oct-11 17:00N 34°03' W 119°41'3 0.2
2017-Oct-10 23:20N 34°04' W 119°45'2 5.2
2017-Oct-10 22:54N 34°05' W 119°43'3 5.6
2017-Oct-10 22:25N 34°08' W 119°42'3 5.2
2017-Oct-10 21:51N 34°11' W 119°41'2 4.8
2017-Oct-10 21:29N 34°12' W 119°41'2 5.0
2017-Oct-10 21:00N 34°15' W 119°41'3 4.9
2017-Oct-10 20:18N 34°18' W 119°41'2 4.7
2017-Oct-10 19:57N 34°20' W 119°41'2 4.6
2017-Oct-10 19:30N 34°22' W 119°41'2 0.9
2017-Oct-10 17:02N 34°24' W 119°42'0 0.0
2017-Oct-10 16:44N 34°24' W 119°42'0 0.0
2017-Oct-10 16:17N 34°24' W 119°42'0 0.0
2017-Oct-10 05:14N 34°24' W 119°42'0 0.0
2017-Oct-10 00:02N 34°24' W 119°42'0 0.0
2017-Oct-08 13:14N 34°24' W 119°42'0 0.0
2017-Oct-08 09:08N 34°24' W 119°42'0 0.0
2017-Oct-08 08:56N 34°24' W 119°42'0 0.0
2017-Oct-08 08:29N 34°24' W 119°42'0 0.0
2017-Oct-08 07:59N 34°24' W 119°42'0 0.0
2017-Oct-08 07:26N 34°24' W 119°42'0 0.0
2017-Oct-08 06:59N 34°24' W 119°42'1 0.0
2017-Oct-07 10:56N 34°25' W 119°41'0 0.0
2017-Oct-07 04:41N 34°25' W 119°41'0 0.0
2017-Oct-07 01:29N 34°25' W 119°41'3 4.7
2017-Oct-07 00:55N 34°23' W 119°44'3 5.1
2017-Oct-07 00:24N 34°24' W 119°47'2 5.1
2017-Oct-07 00:00N 34°24' W 119°49'3 5.0
2017-Oct-06 23:28N 34°24' W 119°52'2 4.9
2017-Oct-06 23:00N 34°24' W 119°55'3 4.7
2017-Oct-06 22:20N 34°25' W 119°59'2 4.8
2017-Oct-06 21:50N 34°25' W 120°02'2 4.6
2017-Oct-06 21:24N 34°25' W 120°04'2 4.8
2017-Oct-06 20:57N 34°25' W 120°07'2 4.7
2017-Oct-06 20:30N 34°26' W 120°09'2 4.6
2017-Oct-06 19:58N 34°26' W 120°12'2 4.5
2017-Oct-06 19:29N 34°25' W 120°15'2 4.3
2017-Oct-06 18:56N 34°25' W 120°18'2 4.0
2017-Oct-06 18:30N 34°25' W 120°20'2 3.8
2017-Oct-06 17:59N 34°26' W 120°22'2 3.5
2017-Oct-06 17:30N 34°26' W 120°24'2 3.3
2017-Oct-06 17:00N 34°27' W 120°26'1 1.1
2017-Oct-06 16:29N 34°27' W 120°26'0 0.0
2017-Oct-06 15:56N 34°27' W 120°26'0 0.0
2017-Oct-06 15:29N 34°27' W 120°26'0 0.0
2017-Oct-06 14:17N 34°27' W 120°26'0 0.0
2017-Oct-06 13:59N 34°27' W 120°26'0 0.0
2017-Oct-06 13:26N 34°27' W 120°26'0 0.0
2017-Oct-06 12:59N 34°27' W 120°26'0 0.0
2017-Oct-06 12:30N 34°27' W 120°26'0 0.0
2017-Oct-06 11:59N 34°27' W 120°26'0 0.0
2017-Oct-06 11:26N 34°27' W 120°26'0 0.0
2017-Oct-06 10:50N 34°27' W 120°26'0 0.0
2017-Oct-06 10:29N 34°27' W 120°26'0 0.0
2017-Oct-06 09:59N 34°27' W 120°26'0 0.0
2017-Oct-06 09:29N 34°27' W 120°26'0 0.0
2017-Oct-06 08:59N 34°27' W 120°26'0 0.0
2017-Oct-06 08:26N 34°27' W 120°26'0 0.0
2017-Oct-06 07:56N 34°27' W 120°26'0 0.0
2017-Oct-06 07:17N 34°27' W 120°26'0 0.0
2017-Oct-06 06:41N 34°27' W 120°26'0 0.1
2017-Oct-06 06:17N 34°27' W 120°26'0 0.0
2017-Oct-06 05:59N 34°27' W 120°26'0 0.0
2017-Oct-06 05:20N 34°27' W 120°26'0 0.1
2017-Oct-06 04:59N 34°27' W 120°26'0 0.0
2017-Oct-06 04:29N 34°27' W 120°26'0 0.0
2017-Oct-06 03:59N 34°27' W 120°26'0 0.0
2017-Oct-06 02:50N 34°27' W 120°26'0 0.0
2017-Oct-06 02:29N 34°27' W 120°26'0 0.0
2017-Oct-06 01:56N 34°27' W 120°26'0 0.0
2017-Oct-06 01:26N 34°27' W 120°26'0 0.0
2017-Oct-06 00:53N 34°27' W 120°26'0 0.0
2017-Oct-06 00:26N 34°27' W 120°26'0 0.0
2017-Oct-05 23:53N 34°27' W 120°26'0 0.0
2017-Oct-05 23:26N 34°27' W 120°26'0 0.0
2017-Oct-05 22:41N 34°27' W 120°26'0 0.0
2017-Oct-05 22:26N 34°27' W 120°26'0 0.0
2017-Oct-05 21:59N 34°27' W 120°26'0 0.0
2017-Oct-05 21:29N 34°27' W 120°26'0 0.0
2017-Oct-05 20:59N 34°27' W 120°26'0 0.0
2017-Oct-05 20:29N 34°27' W 120°26'0 0.0
2017-Oct-05 19:56N 34°27' W 120°26'0 0.0
2017-Oct-05 19:29N 34°27' W 120°26'0 0.0
2017-Oct-05 18:53N 34°27' W 120°26'0 0.0
2017-Oct-05 18:29N 34°27' W 120°26'0 0.0
2017-Oct-05 17:53N 34°27' W 120°26'0 0.0
2017-Oct-05 17:23N 34°27' W 120°26'0 0.0
2017-Oct-05 16:32N 34°27' W 120°26'0 0.0
2017-Oct-05 15:29N 34°27' W 120°26'0 0.1
2017-Oct-05 14:59N 34°27' W 120°26'0 0.0
2017-Oct-05 14:20N 34°27' W 120°26'0 0.0
2017-Oct-05 13:59N 34°27' W 120°26'0 0.0
2017-Oct-05 12:47N 34°27' W 120°26'0 0.0
2017-Oct-05 11:35N 34°27' W 120°26'0 0.0
2017-Oct-05 11:29N 34°27' W 120°26'0 0.0
2017-Oct-05 10:47N 34°27' W 120°26'0 0.0
2017-Oct-05 10:20N 34°27' W 120°26'0 0.0
2017-Oct-05 08:14N 34°27' W 120°26'0 0.0
2017-Oct-05 07:56N 34°27' W 120°26'0 0.0
2017-Oct-05 07:26N 34°27' W 120°26'0 0.0
2017-Oct-05 06:56N 34°27' W 120°26'0 0.0
2017-Oct-05 06:17N 34°27' W 120°26'0 0.0
2017-Oct-05 05:56N 34°27' W 120°26'0 0.0
2017-Oct-05 05:26N 34°27' W 120°26'0 0.0
2017-Oct-05 04:59N 34°27' W 120°26'0 0.3
2017-Oct-05 04:30N 34°27' W 120°27'1 2.9
2017-Oct-05 04:00N 34°26' W 120°28'3 6.1
2017-Oct-05 03:30N 34°28' W 120°31'3 6.0
2017-Oct-05 03:00N 34°30' W 120°34'3 6.1
2017-Oct-05 02:30N 34°32' W 120°37'8 4.8
2017-Oct-05 00:47N 34°39' W 120°41'2 6.1
2017-Oct-05 00:29N 34°41' W 120°42'3 6.3
2017-Oct-05 00:00N 34°44' W 120°42'3 6.4
2017-Oct-04 23:29N 34°47' W 120°43'3 6.6
2017-Oct-04 23:00N 34°50' W 120°44'3 6.4
2017-Oct-04 22:30N 34°53' W 120°44'3 6.3
2017-Oct-04 22:00N 34°57' W 120°46'8 6.0
2017-Oct-04 20:45N 35°04' W 120°49'1 5.9
2017-Oct-04 20:30N 35°05' W 120°50'3 5.7
2017-Oct-04 20:00N 35°07' W 120°51'8 4.2
2017-Oct-04 18:09N 35°14' W 120°56'2 3.2
2017-Oct-04 17:38N 35°16' W 120°57'0 3.0
2017-Oct-04 17:30N 35°16' W 120°57'  

Dump ship's entire track history